sensor_id;sensor_type;location;lat;lon;timestamp;pressure;altitude;pressure_sealevel;temperature;humidity
48622;BME280;34421;48.944;9.460;2023-02-28T00:00:20;99268.66;;;-0.40;50.86
48622;BME280;34421;48.944;9.460;2023-02-28T00:02:45;99267.13;;;-0.42;50.82
48622;BME280;34421;48.944;9.460;2023-02-28T00:05:12;99261.19;;;-0.44;51.85
48622;BME280;34421;48.944;9.460;2023-02-28T00:07:38;99269.16;;;-0.46;52.16
48622;BME280;34421;48.944;9.460;2023-02-28T00:10:04;99256.31;;;-0.49;52.60
48622;BME280;34421;48.944;9.460;2023-02-28T00:12:32;99259.88;;;-0.50;53.08
48622;BME280;34421;48.944;9.460;2023-02-28T00:14:57;99253.78;;;-0.51;52.96
48622;BME280;34421;48.944;9.460;2023-02-28T00:17:22;99262.75;;;-0.53;52.76
48622;BME280;34421;48.944;9.460;2023-02-28T00:19:48;99263.44;;;-0.51;52.40
48622;BME280;34421;48.944;9.460;2023-02-28T00:22:14;99260.81;;;-0.51;52.21
48622;BME280;34421;48.944;9.460;2023-02-28T00:24:40;99270.22;;;-0.49;52.15
48622;BME280;34421;48.944;9.460;2023-02-28T00:27:05;99261.44;;;-0.48;53.58
48622;BME280;34421;48.944;9.460;2023-02-28T00:29:30;99256.31;;;-0.49;53.36
48622;BME280;34421;48.944;9.460;2023-02-28T00:31:55;99257.28;;;-0.50;53.83
48622;BME280;34421;48.944;9.460;2023-02-28T00:34:20;99259.03;;;-0.51;54.13
48622;BME280;34421;48.944;9.460;2023-02-28T00:36:46;99257.28;;;-0.50;54.00
48622;BME280;34421;48.944;9.460;2023-02-28T00:39:13;99253.94;;;-0.52;53.88
48622;BME280;34421;48.944;9.460;2023-02-28T00:41:39;99256.53;;;-0.52;54.33
48622;BME280;34421;48.944;9.460;2023-02-28T00:44:04;99250.59;;;-0.54;53.60
48622;BME280;34421;48.944;9.460;2023-02-28T00:46:29;99256.66;;;-0.54;54.53
48622;BME280;34421;48.944;9.460;2023-02-28T00:48:54;99258.56;;;-0.56;55.18
48622;BME280;34421;48.944;9.460;2023-02-28T00:51:20;99263.91;;;-0.57;54.30
48622;BME280;34421;48.944;9.460;2023-02-28T00:53:45;99260.72;;;-0.61;55.49
48622;BME280;34421;48.944;9.460;2023-02-28T00:56:10;99253.81;;;-0.62;54.35
48622;BME280;34421;48.944;9.460;2023-02-28T00:58:35;99249.66;;;-0.64;54.60
48622;BME280;34421;48.944;9.460;2023-02-28T01:01:00;99249.66;;;-0.64;55.07
48622;BME280;34421;48.944;9.460;2023-02-28T01:03:26;99249.66;;;-0.64;55.94
48622;BME280;34421;48.944;9.460;2023-02-28T01:05:51;99248.69;;;-0.63;56.25
48622;BME280;34421;48.944;9.460;2023-02-28T01:08:17;99249.66;;;-0.64;54.89
48622;BME280;34421;48.944;9.460;2023-02-28T01:10:43;99250.63;;;-0.65;56.50
48622;BME280;34421;48.944;9.460;2023-02-28T01:13:08;99240.84;;;-0.63;55.45
48622;BME280;34421;48.944;9.460;2023-02-28T01:15:33;99245.25;;;-0.64;55.48
48622;BME280;34421;48.944;9.460;2023-02-28T01:17:58;99245.97;;;-0.62;56.55
48622;BME280;34421;48.944;9.460;2023-02-28T01:20:24;99243.38;;;-0.62;56.65
48622;BME280;34421;48.944;9.460;2023-02-28T01:22:49;99244.91;;;-0.59;55.55
48622;BME280;34421;48.944;9.460;2023-02-28T01:25:14;99236.22;;;-0.60;56.18
48622;BME280;34421;48.944;9.460;2023-02-28T01:27:39;99245.84;;;-0.60;56.83
48622;BME280;34421;48.944;9.460;2023-02-28T01:30:05;99242.16;;;-0.58;55.86
48622;BME280;34421;48.944;9.460;2023-02-28T01:32:31;99228.97;;;-0.56;55.71
48622;BME280;34421;48.944;9.460;2023-02-28T01:34:56;99235.03;;;-0.56;56.06
48622;BME280;34421;48.944;9.460;2023-02-28T01:37:21;99235.03;;;-0.56;56.09
48622;BME280;34421;48.944;9.460;2023-02-28T01:39:46;99229.91;;;-0.57;56.41
48622;BME280;34421;48.944;9.460;2023-02-28T01:42:12;99236.59;;;-0.53;55.82
48622;BME280;34421;48.944;9.460;2023-02-28T01:47:21;99227.63;;;-0.51;56.31
48622;BME280;34421;48.944;9.460;2023-02-28T01:49:47;99233.34;;;-0.46;55.96
48622;BME280;34421;48.944;9.460;2023-02-28T01:52:13;99227.19;;;-0.44;57.11
48622;BME280;34421;48.944;9.460;2023-02-28T01:54:42;99232.28;;;-0.43;57.33
48622;BME280;34421;48.944;9.460;2023-02-28T01:57:12;99227.19;;;-0.44;56.89
48622;BME280;34421;48.944;9.460;2023-02-28T01:59:43;99225.63;;;-0.47;57.46
48622;BME280;34421;48.944;9.460;2023-02-28T02:02:17;99225.88;;;-0.50;56.11
48622;BME280;34421;48.944;9.460;2023-02-28T02:04:50;99228.50;;;-0.50;56.14
48622;BME280;34421;48.944;9.460;2023-02-28T02:07:15;99223.94;;;-0.48;56.25
48622;BME280;34421;48.944;9.460;2023-02-28T02:09:41;99221.09;;;-0.45;57.08
48622;BME280;34421;48.944;9.460;2023-02-28T02:12:20;99219.34;;;-0.44;57.15
48622;BME280;34421;48.944;9.460;2023-02-28T02:14:54;99213.97;;;-0.43;57.93
48622;BME280;34421;48.944;9.460;2023-02-28T02:17:28;99213.72;;;-0.40;57.29
48622;BME280;34421;48.944;9.460;2023-02-28T02:20:04;99208.13;;;-0.35;57.90
48622;BME280;34421;48.944;9.460;2023-02-28T02:42:29;99199.34;;;-0.02;57.66
48622;BME280;34421;48.944;9.460;2023-02-28T02:45:01;99199.09;;;0.01;57.52
48622;BME280;34421;48.944;9.460;2023-02-28T02:47:28;99198.81;;;0.04;58.13
48622;BME280;34421;48.944;9.460;2023-02-28T02:49:56;99204.06;;;0.04;57.04
48622;BME280;34421;48.944;9.460;2023-02-28T02:52:23;99199.34;;;-0.02;57.97
48622;BME280;34421;48.944;9.460;2023-02-28T02:54:50;99197.44;;;0.00;57.63
48622;BME280;34421;48.944;9.460;2023-02-28T02:57:31;99194.81;;;0.00;57.06
48622;BME280;34421;48.944;9.460;2023-02-28T02:59:58;99195.75;;;-0.01;58.54
48622;BME280;34421;48.944;9.460;2023-02-28T03:02:25;99196.47;;;0.01;58.45
48622;BME280;34421;48.944;9.460;2023-02-28T03:04:52;99191.22;;;0.01;58.57
48622;BME280;34421;48.944;9.460;2023-02-28T03:07:18;99196.56;;;-0.01;58.21
48622;BME280;34421;48.944;9.460;2023-02-28T03:09:53;99200.03;;;0.00;57.43
48622;BME280;34421;48.944;9.460;2023-02-28T03:12:19;99193.84;;;0.01;57.40
48622;BME280;34421;48.944;9.460;2023-02-28T03:14:55;99197.19;;;0.03;57.41
48622;BME280;34421;48.944;9.460;2023-02-28T03:27:54;99195.19;;;0.16;57.20
48622;BME280;34421;48.944;9.460;2023-02-28T03:32:59;99184.25;;;0.11;58.13
48622;BME280;34421;48.944;9.460;2023-02-28T03:36:01;99195.00;;;0.08;58.00
48622;BME280;34421;48.944;9.460;2023-02-28T03:40:46;99190.22;;;0.13;58.02
48622;BME280;34421;48.944;9.460;2023-02-28T03:43:15;99195.44;;;0.13;58.37
48622;BME280;34421;48.944;9.460;2023-02-28T03:45:43;99200.78;;;0.12;58.08
48622;BME280;34421;48.944;9.460;2023-02-28T03:48:13;99202.72;;;0.10;57.54
48622;BME280;34421;48.944;9.460;2023-02-28T03:50:41;99199.41;;;0.08;58.23
48622;BME280;34421;48.944;9.460;2023-02-28T03:55:37;99208.53;;;0.13;58.65
48622;BME280;34421;48.944;9.460;2023-02-28T03:58:16;99203.06;;;0.16;57.64
48622;BME280;34421;48.944;9.460;2023-02-28T04:00:46;99209.13;;;0.17;57.59
48622;BME280;34421;48.944;9.460;2023-02-28T04:03:14;99201.16;;;0.18;57.59
48622;BME280;34421;48.944;9.460;2023-02-28T04:05:50;99210.91;;;0.16;58.62
48622;BME280;34421;48.944;9.460;2023-02-28T04:08:16;99205.78;;;0.15;58.69
48622;BME280;34421;48.944;9.460;2023-02-28T04:10:42;99205.78;;;0.15;58.47
48622;BME280;34421;48.944;9.460;2023-02-28T04:13:09;99209.63;;;0.11;58.02
48622;BME280;34421;48.944;9.460;2023-02-28T04:15:35;99210.34;;;0.13;58.60
48622;BME280;34421;48.944;9.460;2023-02-28T04:18:00;99209.50;;;0.12;58.60
48622;BME280;34421;48.944;9.460;2023-02-28T04:20:25;99210.19;;;0.14;57.60
48622;BME280;34421;48.944;9.460;2023-02-28T04:22:51;99208.53;;;0.13;58.60
48622;BME280;34421;48.944;9.460;2023-02-28T04:25:16;99213.78;;;0.13;58.72
48622;BME280;34421;48.944;9.460;2023-02-28T04:27:41;99212.25;;;0.11;57.63
48622;BME280;34421;48.944;9.460;2023-02-28T04:30:09;99207.97;;;0.10;58.22
48622;BME280;34421;48.944;9.460;2023-02-28T04:32:34;99208.78;;;0.10;58.09
48622;BME280;34421;48.944;9.460;2023-02-28T04:35:00;99216.50;;;0.12;59.02
48622;BME280;34421;48.944;9.460;2023-02-28T04:37:25;99218.88;;;0.15;58.55
48622;BME280;34421;48.944;9.460;2023-02-28T04:39:53;99216.97;;;0.17;58.37
48622;BME280;34421;48.944;9.460;2023-02-28T04:42:19;99210.81;;;0.18;58.83
48622;BME280;34421;48.944;9.460;2023-02-28T04:44:44;99211.63;;;0.18;58.07
48622;BME280;34421;48.944;9.460;2023-02-28T04:47:09;99210.81;;;0.18;58.11
48622;BME280;34421;48.944;9.460;2023-02-28T04:49:34;99207.31;;;0.17;59.00
48622;BME280;34421;48.944;9.460;2023-02-28T04:52:00;99208.19;;;0.18;58.78
48622;BME280;34421;48.944;9.460;2023-02-28T04:54:25;99208.88;;;0.20;58.21
48622;BME280;34421;48.944;9.460;2023-02-28T04:56:50;99214.94;;;0.20;58.06
48622;BME280;34421;48.944;9.460;2023-02-28T04:59:15;99206.13;;;0.21;58.46
48622;BME280;34421;48.944;9.460;2023-02-28T05:01:41;99212.66;;;0.27;58.29
48622;BME280;34421;48.944;9.460;2023-02-28T05:04:10;99217.75;;;0.29;58.21
48622;BME280;34421;48.944;9.460;2023-02-28T05:06:35;99213.22;;;0.31;59.01
48622;BME280;34421;48.944;9.460;2023-02-28T05:09:01;99220.13;;;0.32;58.01
48622;BME280;34421;48.944;9.460;2023-02-28T05:13:51;99212.53;;;0.29;58.78
48622;BME280;34421;48.944;9.460;2023-02-28T05:16:17;99217.50;;;0.32;58.21
48622;BME280;34421;48.944;9.460;2023-02-28T05:18:43;99213.94;;;0.33;58.60
48622;BME280;34421;48.944;9.460;2023-02-28T05:21:28;99210.34;;;0.34;58.42
48622;BME280;34421;48.944;9.460;2023-02-28T05:23:54;99220.59;;;0.37;58.25
48622;BME280;34421;48.944;9.460;2023-02-28T05:26:19;99218.06;;;0.35;58.08
48622;BME280;34421;48.944;9.460;2023-02-28T05:28:45;99221.41;;;0.37;57.82
48622;BME280;34421;48.944;9.460;2023-02-28T05:31:10;99223.91;;;0.39;57.58
48622;BME280;34421;48.944;9.460;2023-02-28T05:33:36;99225.81;;;0.37;58.38
48622;BME280;34421;48.944;9.460;2023-02-28T05:36:01;99221.53;;;0.36;57.88
48622;BME280;34421;48.944;9.460;2023-02-28T05:38:26;99225.00;;;0.36;57.99
48622;BME280;34421;48.944;9.460;2023-02-28T05:40:51;99222.47;;;0.35;57.23
48622;BME280;34421;48.944;9.460;2023-02-28T05:43:18;99219.03;;;0.34;58.25
48622;BME280;34421;48.944;9.460;2023-02-28T05:45:43;99226.19;;;0.32;58.32
48622;BME280;34421;48.944;9.460;2023-02-28T05:48:08;99223.56;;;0.32;57.31
48622;BME280;34421;48.944;9.460;2023-02-28T05:50:34;99220.84;;;0.34;58.25
48622;BME280;34421;48.944;9.460;2023-02-28T05:52:59;99225.09;;;0.35;57.47
48622;BME280;34421;48.944;9.460;2023-02-28T05:55:24;99221.66;;;0.34;57.59
48622;BME280;34421;48.944;9.460;2023-02-28T05:57:49;99226.91;;;0.34;58.38
48622;BME280;34421;48.944;9.460;2023-02-28T06:00:15;99225.09;;;0.35;58.35
48622;BME280;34421;48.944;9.460;2023-02-28T06:02:40;99228.69;;;0.34;57.51
48622;BME280;34421;48.944;9.460;2023-02-28T06:05:09;99233.94;;;0.34;57.40
48622;BME280;34421;48.944;9.460;2023-02-28T06:07:37;99226.78;;;0.36;57.46
48622;BME280;34421;48.944;9.460;2023-02-28T06:10:02;99237.38;;;0.34;58.10
48622;BME280;34421;48.944;9.460;2023-02-28T06:12:28;99236.56;;;0.34;57.89
48622;BME280;34421;48.944;9.460;2023-02-28T06:14:53;99233.22;;;0.32;57.52
48622;BME280;34421;48.944;9.460;2023-02-28T06:17:18;99241.53;;;0.37;58.23
48622;BME280;34421;48.944;9.460;2023-02-28T06:19:43;99251.19;;;0.36;58.03
48622;BME280;34421;48.944;9.460;2023-02-28T06:22:08;99252.13;;;0.35;57.58
48622;BME280;34421;48.944;9.460;2023-02-28T06:24:34;99256.19;;;0.39;57.64
48622;BME280;34421;48.944;9.460;2023-02-28T06:26:59;99252.22;;;0.45;57.68
48622;BME280;34421;48.944;9.460;2023-02-28T06:29:29;99251.81;;;0.50;57.81
48622;BME280;34421;48.944;9.460;2023-02-28T06:31:55;99252.13;;;0.56;57.00
48622;BME280;34421;48.944;9.460;2023-02-28T06:34:20;99261.44;;;0.60;57.74
48622;BME280;34421;48.944;9.460;2023-02-28T06:36:45;99256.03;;;0.62;57.48
48622;BME280;34421;48.944;9.460;2023-02-28T06:39:10;99262.81;;;0.64;57.49
48622;BME280;34421;48.944;9.460;2023-02-28T06:41:36;99258.16;;;0.68;57.29
48622;BME280;34421;48.944;9.460;2023-02-28T06:44:13;99261.38;;;0.72;56.59
48622;BME280;34421;48.944;9.460;2023-02-28T06:46:39;99265.38;;;0.76;57.20
48622;BME280;34421;48.944;9.460;2023-02-28T06:49:04;99266.78;;;0.80;56.64
48622;BME280;34421;48.944;9.460;2023-02-28T06:51:30;99262.25;;;0.82;56.77
48622;BME280;34421;48.944;9.460;2023-02-28T06:53:55;99266.97;;;0.88;56.51
48622;BME280;34421;48.944;9.460;2023-02-28T06:56:20;99273.63;;;0.92;56.42
48622;BME280;34421;48.944;9.460;2023-02-28T06:58:46;99277.78;;;0.95;56.59
48622;BME280;34421;48.944;9.460;2023-02-28T07:01:13;99281.69;;;1.00;56.32
48622;BME280;34421;48.944;9.460;2023-02-28T07:03:38;99284.59;;;1.07;56.47
48622;BME280;34421;48.944;9.460;2023-02-28T07:06:04;99285.75;;;1.14;55.96
48622;BME280;34421;48.944;9.460;2023-02-28T07:08:29;99282.63;;;1.20;56.00
48622;BME280;34421;48.944;9.460;2023-02-28T07:10:54;99287.44;;;1.25;55.69
48622;BME280;34421;48.944;9.460;2023-02-28T07:13:20;99288.88;;;1.29;55.14
48622;BME280;34421;48.944;9.460;2023-02-28T07:16:09;99289.31;;;1.34;55.29
48622;BME280;34421;48.944;9.460;2023-02-28T07:18:32;99287.81;;;1.41;55.04
48622;BME280;34421;48.944;9.460;2023-02-28T07:21:01;99294.19;;;1.48;55.08
48622;BME280;34421;48.944;9.460;2023-02-28T07:23:26;99292.72;;;1.55;54.59
48622;BME280;34421;48.944;9.460;2023-02-28T07:25:51;99291.09;;;1.64;54.42
48622;BME280;34421;48.944;9.460;2023-02-28T07:28:17;99292.47;;;1.68;54.37
48622;BME280;34421;48.944;9.460;2023-02-28T07:30:42;99287.25;;;1.78;54.40
48622;BME280;34421;48.944;9.460;2023-02-28T07:33:07;99299.72;;;1.86;54.19
48622;BME280;34421;48.944;9.460;2023-02-28T07:35:32;99288.94;;;1.98;53.87
48622;BME280;34421;48.944;9.460;2023-02-28T07:37:58;99298.25;;;2.12;53.51
48622;BME280;34421;48.944;9.460;2023-02-28T07:40:23;99296.47;;;2.32;53.36
48622;BME280;34421;48.944;9.460;2023-02-28T07:42:49;99298.97;;;2.53;52.45
48622;BME280;34421;48.944;9.460;2023-02-28T07:45:14;99304.34;;;2.71;51.89
48622;BME280;34421;48.944;9.460;2023-02-28T07:47:39;99302.13;;;2.86;51.88
48622;BME280;34421;48.944;9.460;2023-02-28T07:50:06;99300.16;;;3.07;50.77
48622;BME280;34421;48.944;9.460;2023-02-28T07:52:32;99309.66;;;3.28;51.81
48622;BME280;34421;48.944;9.460;2023-02-28T07:54:57;99305.63;;;3.33;50.17
48622;BME280;34421;48.944;9.460;2023-02-28T07:57:22;99304.06;;;3.40;49.38
48622;BME280;34421;48.944;9.460;2023-02-28T07:59:48;99307.63;;;3.49;50.29
48622;BME280;34421;48.944;9.460;2023-02-28T08:02:13;99316.59;;;3.66;49.93
48622;BME280;34421;48.944;9.460;2023-02-28T08:04:39;99320.22;;;3.93;49.57
48622;BME280;34421;48.944;9.460;2023-02-28T08:07:04;99317.56;;;3.93;49.89
48622;BME280;34421;48.944;9.460;2023-02-28T08:09:29;99314.81;;;4.12;49.46
48622;BME280;34421;48.944;9.460;2023-02-28T08:11:55;99314.75;;;4.40;47.72
48622;BME280;34421;48.944;9.460;2023-02-28T08:14:20;99320.09;;;4.48;47.58
48622;BME280;34421;48.944;9.460;2023-02-28T08:16:45;99319.19;;;4.57;48.47
48622;BME280;34421;48.944;9.460;2023-02-28T08:19:10;99312.06;;;4.67;47.95
48622;BME280;34421;48.944;9.460;2023-02-28T08:21:36;99320.56;;;4.61;46.63
48622;BME280;34421;48.944;9.460;2023-02-28T08:24:01;99311.47;;;4.55;46.50
48622;BME280;34421;48.944;9.460;2023-02-28T08:26:26;99310.03;;;4.61;47.67
48622;BME280;34421;48.944;9.460;2023-02-28T08:28:51;99310.97;;;4.60;47.34
48622;BME280;34421;48.944;9.460;2023-02-28T08:31:17;99298.56;;;4.70;45.91
48622;BME280;34421;48.944;9.460;2023-02-28T08:33:42;99300.13;;;4.81;45.75
48622;BME280;34421;48.944;9.460;2023-02-28T08:36:09;99301.19;;;4.88;46.54
48622;BME280;34421;48.944;9.460;2023-02-28T08:38:35;99303.66;;;4.90;46.04
48622;BME280;34421;48.944;9.460;2023-02-28T08:41:01;99300.56;;;4.94;46.27
48622;BME280;34421;48.944;9.460;2023-02-28T08:43:27;99311.00;;;6.82;44.43
48622;BME280;34421;48.944;9.460;2023-02-28T08:45:53;99299.59;;;10.20;40.16
48622;BME280;34421;48.944;9.460;2023-02-28T08:48:19;99302.91;;;12.73;33.69
48622;BME280;34421;48.944;9.460;2023-02-28T08:50:44;99302.22;;;14.23;30.99
48622;BME280;34421;48.944;9.460;2023-02-28T08:53:09;99292.03;;;15.70;29.55
48622;BME280;34421;48.944;9.460;2023-02-28T08:55:34;99298.56;;;17.01;27.28
48622;BME280;34421;48.944;9.460;2023-02-28T08:57:59;99300.09;;;17.44;26.47
48622;BME280;34421;48.944;9.460;2023-02-28T09:00:26;99287.25;;;18.39;24.44
48622;BME280;34421;48.944;9.460;2023-02-28T09:02:51;99290.69;;;19.47;22.92
48622;BME280;34421;48.944;9.460;2023-02-28T09:05:16;99289.22;;;20.22;21.49
48622;BME280;34421;48.944;9.460;2023-02-28T09:07:41;99286.09;;;19.87;22.56
48622;BME280;34421;48.944;9.460;2023-02-28T09:10:07;99283.03;;;20.00;20.98
48622;BME280;34421;48.944;9.460;2023-02-28T09:12:34;99292.78;;;18.61;21.69
48622;BME280;34421;48.944;9.460;2023-02-28T09:15:00;99294.47;;;16.99;23.90
48622;BME280;34421;48.944;9.460;2023-02-28T09:17:25;99290.41;;;17.20;23.41
48622;BME280;34421;48.944;9.460;2023-02-28T09:19:50;99305.28;;;16.20;24.85
48622;BME280;34421;48.944;9.460;2023-02-28T09:22:15;99296.09;;;16.88;23.82
48622;BME280;34421;48.944;9.460;2023-02-28T09:24:41;99290.63;;;16.64;24.28
48622;BME280;34421;48.944;9.460;2023-02-28T09:27:06;99296.53;;;15.94;24.85
48622;BME280;34421;48.944;9.460;2023-02-28T09:29:32;99295.44;;;15.15;25.74
48622;BME280;34421;48.944;9.460;2023-02-28T09:31:57;99292.88;;;13.94;26.38
48622;BME280;34421;48.944;9.460;2023-02-28T09:34:23;99303.38;;;13.88;27.17
48622;BME280;34421;48.944;9.460;2023-02-28T09:36:49;99302.09;;;13.39;27.24
48622;BME280;34421;48.944;9.460;2023-02-28T09:39:15;99298.56;;;13.19;27.89
48622;BME280;34421;48.944;9.460;2023-02-28T09:41:42;99308.03;;;12.75;28.40
48622;BME280;34421;48.944;9.460;2023-02-28T09:46:47;99311.72;;;11.99;29.50
48622;BME280;34421;48.944;9.460;2023-02-28T09:49:15;99314.41;;;12.06;29.91
48622;BME280;34421;48.944;9.460;2023-02-28T09:54:17;99308.44;;;12.72;29.12
48622;BME280;34421;48.944;9.460;2023-02-28T09:56:44;99304.75;;;13.19;28.30
48622;BME280;34421;48.944;9.460;2023-02-28T09:59:25;99301.19;;;15.44;26.63
48622;BME280;34421;48.944;9.460;2023-02-28T10:01:57;99309.38;;;14.99;26.01
48622;BME280;34421;48.944;9.460;2023-02-28T10:06:50;99311.91;;;13.72;27.30
48622;BME280;34421;48.944;9.460;2023-02-28T10:09:21;99313.63;;;13.27;27.18
48622;BME280;34421;48.944;9.460;2023-02-28T10:11:48;99315.00;;;12.69;28.08
48622;BME280;34421;48.944;9.460;2023-02-28T10:14:16;99314.19;;;13.68;26.48
48622;BME280;34421;48.944;9.460;2023-02-28T10:16:45;99309.41;;;14.29;26.14
48622;BME280;34421;48.944;9.460;2023-02-28T10:24:48;99310.22;;;16.53;24.52
48622;BME280;34421;48.944;9.460;2023-02-28T10:27:16;99310.75;;;17.51;22.96
48622;BME280;34421;48.944;9.460;2023-02-28T10:29:43;99318.69;;;16.99;22.94
48622;BME280;34421;48.944;9.460;2023-02-28T10:32:09;99317.41;;;15.49;24.40
48622;BME280;34421;48.944;9.460;2023-02-28T10:34:35;99329.25;;;16.22;23.40
48622;BME280;34421;48.944;9.460;2023-02-28T10:37:00;99307.44;;;17.61;22.57
48622;BME280;34421;48.944;9.460;2023-02-28T10:39:35;99316.00;;;17.58;21.61
48622;BME280;34421;48.944;9.460;2023-02-28T10:42:02;99305.28;;;18.96;20.82
48622;BME280;34421;48.944;9.460;2023-02-28T10:44:27;99302.97;;;19.38;19.96
48622;BME280;34421;48.944;9.460;2023-02-28T10:46:53;99297.59;;;18.87;20.37
48622;BME280;34421;48.944;9.460;2023-02-28T10:49:25;99307.94;;;17.58;21.73
48622;BME280;34421;48.944;9.460;2023-02-28T10:51:52;99326.06;;;16.13;22.46
48622;BME280;34421;48.944;9.460;2023-02-28T10:54:20;99317.41;;;15.92;23.98
48622;BME280;34421;48.944;9.460;2023-02-28T10:57:04;99317.28;;;15.62;23.94
48622;BME280;34421;48.944;9.460;2023-02-28T10:59:30;99316.00;;;17.58;22.71
48622;BME280;34421;48.944;9.460;2023-02-28T11:01:55;99308.38;;;19.38;21.12
48622;BME280;34421;48.944;9.460;2023-02-28T11:06:57;99290.88;;;23.19;17.98
48622;BME280;34421;48.944;9.460;2023-02-28T11:09:24;99285.78;;;24.03;17.00
48622;BME280;34421;48.944;9.460;2023-02-28T11:11:54;99292.88;;;24.53;16.46
48622;BME280;34421;48.944;9.460;2023-02-28T11:14:26;99277.31;;;24.59;16.44
48622;BME280;34421;48.944;9.460;2023-02-28T11:16:52;99272.63;;;24.70;15.61
48622;BME280;34421;48.944;9.460;2023-02-28T11:19:20;99272.78;;;23.95;16.44
48622;BME280;34421;48.944;9.460;2023-02-28T11:22:02;99269.97;;;23.14;16.91
48622;BME280;34421;48.944;9.460;2023-02-28T11:24:35;99273.78;;;23.03;16.29
48622;BME280;34421;48.944;9.460;2023-02-28T11:27:02;99281.63;;;23.35;16.47
48622;BME280;34421;48.944;9.460;2023-02-28T11:29:29;99274.81;;;23.23;16.56
48622;BME280;34421;48.944;9.460;2023-02-28T11:34:34;99273.78;;;21.94;17.91
48622;BME280;34421;48.944;9.460;2023-02-28T11:36:59;99279.94;;;21.32;17.81
48622;BME280;34421;48.944;9.460;2023-02-28T11:39:26;99280.06;;;21.10;18.50
48622;BME280;34421;48.944;9.460;2023-02-28T11:46:56;99276.13;;;19.48;18.56
48622;BME280;34421;48.944;9.460;2023-02-28T11:49:26;99267.91;;;18.87;19.79
48622;BME280;34421;48.944;9.460;2023-02-28T11:52:00;99274.06;;;18.26;20.08
48622;BME280;34421;48.944;9.460;2023-02-28T11:57:03;99281.41;;;16.12;22.34
48622;BME280;34421;48.944;9.460;2023-02-28T11:59:44;99283.78;;;15.03;24.11
48622;BME280;34421;48.944;9.460;2023-02-28T12:07:11;99286.22;;;12.71;26.59
48622;BME280;34421;48.944;9.460;2023-02-28T12:24:47;99278.44;;;10.48;30.71
48622;BME280;34421;48.944;9.460;2023-02-28T12:27:18;99279.94;;;10.36;31.11
48622;BME280;34421;48.944;9.460;2023-02-28T12:29:53;99273.75;;;9.99;31.38
48622;BME280;34421;48.944;9.460;2023-02-28T12:32:32;99272.25;;;9.75;31.68
48622;BME280;34421;48.944;9.460;2023-02-28T12:35:06;99275.94;;;9.59;31.86
48622;BME280;34421;48.944;9.460;2023-02-28T12:40:23;99274.28;;;9.43;32.81
48622;BME280;34421;48.944;9.460;2023-02-28T12:45:19;99273.06;;;9.31;32.65
48622;BME280;34421;48.944;9.460;2023-02-28T12:47:46;99267.50;;;9.11;32.62
48622;BME280;34421;48.944;9.460;2023-02-28T12:50:14;99256.94;;;9.03;32.80
48622;BME280;34421;48.944;9.460;2023-02-28T13:00:16;99248.22;;;8.94;34.22
48622;BME280;34421;48.944;9.460;2023-02-28T13:08:27;99247.16;;;8.80;34.14
48622;BME280;34421;48.944;9.460;2023-02-28T13:10:46;99241.84;;;8.80;34.73
48622;BME280;34421;48.944;9.460;2023-02-28T13:13:16;99252.16;;;8.83;34.22
48622;BME280;34421;48.944;9.460;2023-02-28T13:15:56;99245.69;;;8.63;34.66
48622;BME280;34421;48.944;9.460;2023-02-28T13:20:53;99248.75;;;8.52;35.48
48622;BME280;34421;48.944;9.460;2023-02-28T13:24:35;99240.13;;;8.50;35.40
48622;BME280;34421;48.944;9.460;2023-02-28T13:26:16;99239.16;;;8.51;35.49
48622;BME280;34421;48.944;9.460;2023-02-28T13:28:57;99249.84;;;8.34;35.94
48622;BME280;34421;48.944;9.460;2023-02-28T13:31:23;99243.53;;;8.35;35.60
48622;BME280;34421;48.944;9.460;2023-02-28T13:38:43;99235.59;;;8.12;35.52
48622;BME280;34421;48.944;9.460;2023-02-28T13:44:10;99233.41;;;8.16;36.30
48622;BME280;34421;48.944;9.460;2023-02-28T13:47:13;99237.63;;;8.02;36.17
48622;BME280;34421;48.944;9.460;2023-02-28T13:49:31;99244.59;;;8.03;36.59
48622;BME280;34421;48.944;9.460;2023-02-28T13:57:12;99238.19;;;7.89;36.44
48622;BME280;34421;48.944;9.460;2023-02-28T14:02:24;99237.16;;;7.98;36.98
48622;BME280;34421;48.944;9.460;2023-02-28T14:07:21;99236.47;;;7.96;37.16
48622;BME280;34421;48.944;9.460;2023-02-28T14:10:18;99239.59;;;8.00;36.92
48622;BME280;34421;48.944;9.460;2023-02-28T14:12:52;99242.44;;;7.98;37.35
48622;BME280;34421;48.944;9.460;2023-02-28T14:17:51;99237.38;;;7.89;37.32
48622;BME280;34421;48.944;9.460;2023-02-28T14:20:17;99243.97;;;7.93;37.45
48622;BME280;34421;48.944;9.460;2023-02-28T14:33:04;99232.59;;;7.84;38.47
48622;BME280;34421;48.944;9.460;2023-02-28T14:38:29;99238.19;;;7.89;37.78
48622;BME280;34421;48.944;9.460;2023-02-28T14:40:56;99237.16;;;7.98;37.97
48622;BME280;34421;48.944;9.460;2023-02-28T14:43:24;99239.59;;;8.00;37.76
48622;BME280;34421;48.944;9.460;2023-02-28T14:45:53;99246.28;;;7.96;37.27
48622;BME280;34421;48.944;9.460;2023-02-28T14:48:20;99246.63;;;7.93;37.50
48622;BME280;34421;48.944;9.460;2023-02-28T14:50:50;99249.75;;;7.96;37.37
48622;BME280;34421;48.944;9.460;2023-02-28T14:53:17;99244.59;;;8.03;38.29
48622;BME280;34421;48.944;9.460;2023-02-28T14:55:44;99246.22;;;8.04;38.31
48622;BME280;34421;48.944;9.460;2023-02-28T14:58:30;99246.34;;;8.11;38.17
48622;BME280;34421;48.944;9.460;2023-02-28T15:00:57;99253.13;;;8.13;38.27
48622;BME280;34421;48.944;9.460;2023-02-28T15:05:51;99253.44;;;8.18;38.00
48622;BME280;34421;48.944;9.460;2023-02-28T15:08:16;99255.13;;;8.11;37.72
48622;BME280;34421;48.944;9.460;2023-02-28T15:10:53;99249.34;;;8.08;38.03
48622;BME280;34421;48.944;9.460;2023-02-28T15:13:18;99251.34;;;8.06;38.42
48622;BME280;34421;48.944;9.460;2023-02-28T15:15:52;99251.34;;;8.06;38.11
48622;BME280;34421;48.944;9.460;2023-02-28T15:20:45;99261.00;;;7.98;38.45
48622;BME280;34421;48.944;9.460;2023-02-28T15:23:11;99252.13;;;7.91;38.52
48622;BME280;34421;48.944;9.460;2023-02-28T15:25:36;99261.41;;;7.87;38.60
48622;BME280;34421;48.944;9.460;2023-02-28T15:28:02;99260.09;;;7.83;38.21
48622;BME280;34421;48.944;9.460;2023-02-28T15:30:28;99261.75;;;7.84;38.11
48622;BME280;34421;48.944;9.460;2023-02-28T15:35:38;99270.41;;;7.70;38.48
48622;BME280;34421;48.944;9.460;2023-02-28T15:40:51;99266.84;;;7.54;39.28
48622;BME280;34421;48.944;9.460;2023-02-28T15:43:23;99257.94;;;7.39;39.16